Time,TemperatureF,DewpointF,PressureIn,WindDirection,WindDirectionDegrees,WindSpeedMPH,WindSpeedGustMPH,Humidity,HourlyPrecipIn,Conditions,Clouds,dailyrainin,SolarRadiationWatts/m^2,SoftwareType,DateUTC
2013-08-22 00:04:00,58.4,55.0,29.92,SSE,161,2.0,7.0,88,0.00,,,0.00,0,weatherlink.com 1.10,2013-08-22 07:04:00,
2013-08-22 00:19:00,58.3,55.0,29.91,South,169,4.0,6.0,88,0.00,,,0.00,0,weatherlink.com 1.10,2013-08-22 07:19:00,
2013-08-22 00:34:00,58.3,55.0,29.92,SE,141,2.0,6.0,88,0.00,,,0.00,0,weatherlink.com 1.10,2013-08-22 07:34:00,
2013-08-22 00:49:00,58.2,55.0,29.92,SSE,160,4.0,6.0,88,0.00,,,0.00,0,weatherlink.com 1.10,2013-08-22 07:49:00,
2013-08-22 01:04:00,58.2,55.0,29.92,SSE,153,4.0,8.0,89,0.00,,,0.00,0,weatherlink.com 1.10,2013-08-22 08:04:00,
2013-08-22 01:19:00,58.1,55.0,29.91,SE,132,4.0,9.0,89,0.00,,,0.00,0,weatherlink.com 1.10,2013-08-22 08:19:00,
2013-08-22 01:34:00,58.0,55.0,29.91,SE,134,4.0,7.0,89,0.00,,,0.00,0,weatherlink.com 1.10,2013-08-22 08:34:00,
2013-08-22 01:49:00,58.0,55.0,29.91,SE,141,3.0,5.0,89,0.00,,,0.00,0,weatherlink.com 1.10,2013-08-22 08:49:00,
2013-08-22 02:04:00,57.9,55.0,29.91,SE,146,4.0,6.0,89,0.00,,,0.00,0,weatherlink.com 1.10,2013-08-22 09:04:00,
2013-08-22 02:19:00,57.8,55.0,29.91,SSE,159,2.0,5.0,89,0.00,,,0.00,0,weatherlink.com 1.10,2013-08-22 09:19:00,
2013-08-22 02:34:00,57.9,55.0,29.91,SE,146,3.0,7.0,90,0.00,,,0.00,0,weatherlink.com 1.10,2013-08-22 09:34:00,
2013-08-22 02:49:00,57.9,55.0,29.91,SSE,167,5.0,8.0,90,0.00,,,0.00,0,weatherlink.com 1.10,2013-08-22 09:49:00,
2013-08-22 03:04:00,57.8,55.0,29.91,SSW,195,3.0,7.0,89,0.00,,,0.00,0,weatherlink.com 1.10,2013-08-22 10:04:00,
2013-08-22 03:19:00,57.8,55.0,29.92,SSE,150,3.0,6.0,90,0.00,,,0.00,0,weatherlink.com 1.10,2013-08-22 10:19:00,
2013-08-22 03:34:00,57.8,55.0,29.92,SSE,164,2.0,6.0,90,0.00,,,0.00,0,weatherlink.com 1.10,2013-08-22 10:34:00,
2013-08-22 03:49:00,57.8,55.0,29.92,SSE,150,3.0,4.0,90,0.00,,,0.00,0,weatherlink.com 1.10,2013-08-22 10:49:00,
2013-08-22 05:35:00,57.4,54.0,29.91,SE,144,1.0,5.0,89,0.00,,,0.00,0,weatherlink.com 1.10,2013-08-22 12:35:00,
2013-08-22 05:50:00,57.4,54.0,29.92,SSW,196,1.0,4.0,89,0.00,,,0.00,0,weatherlink.com 1.10,2013-08-22 12:50:00,
2013-08-22 06:05:00,57.4,54.0,29.92,South,180,4.0,5.0,88,0.00,,,0.00,0,weatherlink.com 1.10,2013-08-22 13:05:00,
2013-08-22 06:20:00,57.2,54.0,29.93,South,169,1.0,5.0,88,0.00,,,0.00,0,weatherlink.com 1.10,2013-08-22 13:20:00,
2013-08-22 06:35:00,57.1,54.0,29.93,SW,231,3.0,7.0,88,0.00,,,0.00,0,weatherlink.com 1.10,2013-08-22 13:35:00,
2013-08-22 06:50:00,57.1,54.0,29.93,SSW,195,2.0,6.0,88,0.00,,,0.00,5,weatherlink.com 1.10,2013-08-22 13:50:00,
2013-08-22 07:05:00,57.1,54.0,29.94,SW,225,2.0,6.0,88,0.00,,,0.00,11,weatherlink.com 1.10,2013-08-22 14:05:00,
2013-08-22 07:20:00,57.2,54.0,29.94,SSW,209,5.0,5.0,88,0.00,,,0.00,23,weatherlink.com 1.10,2013-08-22 14:20:00,
2013-08-22 07:35:00,57.4,54.0,29.95,SW,216,1.0,8.0,88,0.00,,,0.00,33,weatherlink.com 1.10,2013-08-22 14:35:00,
2013-08-22 07:50:00,57.7,54.0,29.95,SW,223,1.0,7.0,88,0.00,,,0.00,40,weatherlink.com 1.10,2013-08-22 14:50:00,
2013-08-22 08:05:00,57.9,54.0,29.95,SW,217,2.0,7.0,87,0.00,,,0.00,54,weatherlink.com 1.10,2013-08-22 15:05:00,
2013-08-22 08:20:00,58.1,54.0,29.96,SW,229,2.0,7.0,86,0.00,,,0.00,83,weatherlink.com 1.10,2013-08-22 15:20:00,
2013-08-22 08:35:00,58.4,54.0,29.97,WSW,251,1.0,6.0,86,0.00,,,0.00,81,weatherlink.com 1.10,2013-08-22 15:35:00,
2013-08-22 08:50:00,58.5,54.0,29.97,SW,229,1.0,6.0,85,0.00,,,0.00,97,weatherlink.com 1.10,2013-08-22 15:50:00,
2013-08-22 09:05:00,58.8,55.0,29.97,West,273,1.0,5.0,86,0.00,,,0.00,118,weatherlink.com 1.10,2013-08-22 16:05:00,
2013-08-22 09:20:00,59.0,54.0,29.97,SSW,206,2.0,4.0,84,0.00,,,0.00,127,weatherlink.com 1.10,2013-08-22 16:20:00,
2013-08-22 09:35:00,59.5,55.0,29.97,SSW,202,0.0,4.0,84,0.00,,,0.00,169,weatherlink.com 1.10,2013-08-22 16:35:00,
2013-08-22 09:50:00,59.9,55.0,29.97,South,183,1.0,6.0,83,0.00,,,0.00,174,weatherlink.com 1.10,2013-08-22 16:50:00,
2013-08-22 10:05:00,59.9,55.0,29.98,SSE,156,3.0,6.0,83,0.00,,,0.00,171,weatherlink.com 1.10,2013-08-22 17:05:00,
2013-08-22 10:20:00,60.1,55.0,29.98,SW,228,3.0,6.0,82,0.00,,,0.00,216,weatherlink.com 1.10,2013-08-22 17:20:00,
2013-08-22 10:35:00,60.3,55.0,29.98,SSW,202,5.0,7.0,82,0.00,,,0.00,285,weatherlink.com 1.10,2013-08-22 17:35:00,
2013-08-22 10:50:00,60.9,55.0,29.98,SW,214,0.0,5.0,81,0.00,,,0.00,378,weatherlink.com 1.10,2013-08-22 17:50:00,
2013-08-22 11:05:00,61.5,55.0,29.98,South,190,1.0,7.0,79,0.00,,,0.00,508,weatherlink.com 1.10,2013-08-22 18:05:00,
2013-08-22 11:20:00,62.6,56.0,29.98,West,259,1.0,8.0,78,0.00,,,0.00,601,weatherlink.com 1.10,2013-08-22 18:20:00,
2013-08-22 11:36:00,63.6,56.0,29.97,SE,135,7.0,10.0,75,0.00,,,0.00,397,weatherlink.com 1.10,2013-08-22 18:36:00,
2013-08-22 11:51:00,62.7,55.0,29.97,SSE,148,5.0,10.0,76,0.00,,,0.00,807,weatherlink.com 1.10,2013-08-22 18:51:00,
2013-08-22 12:06:00,63.9,56.0,29.97,SE,139,6.0,10.0,75,0.00,,,0.00,905,weatherlink.com 1.10,2013-08-22 19:06:00,
2013-08-22 12:21:00,64.5,56.0,29.96,South,169,3.0,10.0,75,0.00,,,0.00,889,weatherlink.com 1.10,2013-08-22 19:21:00,
2013-08-22 12:36:00,66.0,57.0,29.96,SW,224,5.0,8.0,72,0.00,,,0.00,898,weatherlink.com 1.10,2013-08-22 19:36:00,
2013-08-22 12:51:00,65.6,56.0,29.96,SSW,196,1.0,10.0,72,0.00,,,0.00,907,weatherlink.com 1.10,2013-08-22 19:51:00,
2013-08-22 13:06:00,65.5,56.0,29.95,SE,146,5.0,13.0,72,0.00,,,0.00,912,weatherlink.com 1.10,2013-08-22 20:06:00,
2013-08-22 13:21:00,65.4,57.0,29.95,SSE,163,4.0,10.0,73,0.00,,,0.00,912,weatherlink.com 1.10,2013-08-22 20:21:00,
2013-08-22 13:36:00,65.8,57.0,29.95,SSE,157,4.0,14.0,72,0.00,,,0.00,911,weatherlink.com 1.10,2013-08-22 20:36:00,
2013-08-22 13:51:00,66.0,56.0,29.95,SE,142,2.0,10.0,71,0.00,,,0.00,902,weatherlink.com 1.10,2013-08-22 20:51:00,
2013-08-22 14:06:00,66.1,56.0,29.95,SSE,162,6.0,10.0,71,0.00,,,0.00,893,weatherlink.com 1.10,2013-08-22 21:06:00,
2013-08-22 14:21:00,64.8,56.0,29.94,SE,138,3.0,13.0,74,0.00,,,0.00,877,weatherlink.com 1.10,2013-08-22 21:21:00,
2013-08-22 14:36:00,64.8,57.0,29.94,SE,128,9.0,10.0,75,0.00,,,0.00,858,weatherlink.com 1.10,2013-08-22 21:36:00,
2013-08-22 14:51:00,66.3,57.0,29.93,South,180,5.0,12.0,72,0.00,,,0.00,837,weatherlink.com 1.10,2013-08-22 21:51:00,
2013-08-22 15:06:00,65.8,57.0,29.93,SE,141,4.0,11.0,72,0.00,,,0.00,816,weatherlink.com 1.10,2013-08-22 22:06:00,
2013-08-22 15:21:00,66.5,58.0,29.92,SE,133,7.0,10.0,73,0.00,,,0.00,788,weatherlink.com 1.10,2013-08-22 22:21:00,
2013-08-22 15:36:00,67.5,57.0,29.92,SE,146,3.0,9.0,70,0.00,,,0.00,756,weatherlink.com 1.10,2013-08-22 22:36:00,
2013-08-22 15:51:00,67.5,57.0,29.91,SSE,160,1.0,8.0,69,0.00,,,0.00,724,weatherlink.com 1.10,2013-08-22 22:51:00,
2013-08-22 16:06:00,67.9,57.0,29.91,South,170,7.0,8.0,68,0.00,,,0.00,686,weatherlink.com 1.10,2013-08-22 23:06:00,
2013-08-22 16:21:00,68.3,57.0,29.91,SW,227,3.0,7.0,68,0.00,,,0.00,647,weatherlink.com 1.10,2013-08-22 23:21:00,
2013-08-22 16:36:00,68.2,57.0,29.90,South,183,4.0,8.0,68,0.00,,,0.00,605,weatherlink.com 1.10,2013-08-22 23:36:00,
2013-08-22 16:51:00,68.1,57.0,29.91,SSE,152,3.0,8.0,67,0.00,,,0.00,561,weatherlink.com 1.10,2013-08-22 23:51:00,
2013-08-22 17:06:00,67.9,57.0,29.90,SW,236,2.0,6.0,68,0.00,,,0.00,517,weatherlink.com 1.10,2013-08-23 00:06:00,
2013-08-22 17:21:00,67.7,57.0,29.90,SSE,165,3.0,5.0,69,0.00,,,0.00,469,weatherlink.com 1.10,2013-08-23 00:21:00,
2013-08-22 17:36:00,67.3,56.0,29.90,SE,144,2.0,6.0,68,0.00,,,0.00,418,weatherlink.com 1.10,2013-08-23 00:36:00,
2013-08-22 17:51:00,66.3,56.0,29.90,SSW,198,4.0,7.0,70,0.00,,,0.00,366,weatherlink.com 1.10,2013-08-23 00:51:00,
2013-08-22 18:06:00,66.0,56.0,29.89,SW,222,1.0,9.0,71,0.00,,,0.00,315,weatherlink.com 1.10,2013-08-23 01:06:00,
2013-08-22 18:21:00,65.4,57.0,29.89,SE,138,2.0,8.0,73,0.00,,,0.00,264,weatherlink.com 1.10,2013-08-23 01:21:00,
2013-08-22 18:36:00,64.9,56.0,29.89,SE,130,5.0,9.0,74,0.00,,,0.00,40,weatherlink.com 1.10,2013-08-23 01:36:00,
2013-08-22 18:51:00,64.5,56.0,29.89,South,170,2.0,6.0,75,0.00,,,0.00,32,weatherlink.com 1.10,2013-08-23 01:51:00,
2013-08-22 19:06:00,64.1,56.0,29.89,South,188,2.0,5.0,76,0.00,,,0.00,25,weatherlink.com 1.10,2013-08-23 02:06:00,
2013-08-22 19:21:00,63.5,56.0,29.89,SSE,161,3.0,6.0,77,0.00,,,0.00,18,weatherlink.com 1.10,2013-08-23 02:21:00,
2013-08-22 19:36:00,62.6,56.0,29.89,SE,146,3.0,5.0,79,0.00,,,0.00,11,weatherlink.com 1.10,2013-08-23 02:36:00,
2013-08-22 19:51:00,61.7,56.0,29.89,SSE,148,3.0,6.0,80,0.00,,,0.00,0,weatherlink.com 1.10,2013-08-23 02:51:00,
2013-08-22 20:06:00,61.0,55.0,29.89,SW,216,0.0,7.0,81,0.00,,,0.00,0,weatherlink.com 1.10,2013-08-23 03:06:00,
2013-08-22 20:21:00,60.7,55.0,29.90,South,178,0.0,3.0,82,0.00,,,0.00,0,weatherlink.com 1.10,2013-08-23 03:21:00,
2013-08-22 20:36:00,60.1,55.0,29.91,SSE,150,4.0,4.0,83,0.00,,,0.00,0,weatherlink.com 1.10,2013-08-23 03:36:00,
2013-08-22 20:51:00,59.7,55.0,29.91,South,171,2.0,5.0,84,0.00,,,0.00,0,weatherlink.com 1.10,2013-08-23 03:51:00,
2013-08-22 21:06:00,59.3,55.0,29.91,SW,234,0.0,5.0,85,0.00,,,0.00,0,weatherlink.com 1.10,2013-08-23 04:06:00,
2013-08-22 21:21:00,59.0,55.0,29.92,SE,139,4.0,4.0,85,0.00,,,0.00,0,weatherlink.com 1.10,2013-08-23 04:21:00,
2013-08-22 21:36:00,59.0,55.0,29.92,SSE,148,2.0,3.0,86,0.00,,,0.00,0,weatherlink.com 1.10,2013-08-23 04:36:00,
2013-08-22 21:51:00,58.8,55.0,29.92,South,174,2.0,4.0,86,0.00,,,0.00,0,weatherlink.com 1.10,2013-08-23 04:51:00,
2013-08-22 22:06:00,58.6,55.0,29.92,South,169,1.0,3.0,86,0.00,,,0.00,0,weatherlink.com 1.10,2013-08-23 05:06:00,
2013-08-22 22:21:00,58.4,54.0,29.92,SSE,161,2.0,5.0,86,0.00,,,0.00,0,weatherlink.com 1.10,2013-08-23 05:21:00,
2013-08-22 22:36:00,58.3,54.0,29.92,SSE,152,0.0,4.0,86,0.00,,,0.00,0,weatherlink.com 1.10,2013-08-23 05:36:00,
2013-08-22 22:51:00,58.2,54.0,29.92,SSE,167,1.0,3.0,86,0.00,,,0.00,0,weatherlink.com 1.10,2013-08-23 05:51:00,
2013-08-22 23:06:00,58.1,54.0,29.92,SSE,163,1.0,4.0,87,0.00,,,0.00,0,weatherlink.com 1.10,2013-08-23 06:06:00,
2013-08-22 23:21:00,57.9,54.0,29.92,SSE,167,1.0,3.0,88,0.00,,,0.00,0,weatherlink.com 1.10,2013-08-23 06:21:00,
2013-08-22 23:36:00,57.8,54.0,29.92,South,173,1.0,2.0,88,0.00,,,0.00,0,weatherlink.com 1.10,2013-08-23 06:36:00,
2013-08-22 23:51:00,57.8,54.0,29.92,SSE,148,1.0,4.0,88,0.00,,,0.00,0,weatherlink.com 1.10,2013-08-23 06:51:00,